sensor_id;sensor_type;location;lat;lon;timestamp;temperature;humidity
11820;DHT22;5967;48.944;9.240;2022-08-21T00:01:27;16.40;99.90
11820;DHT22;5967;48.944;9.240;2022-08-21T00:03:54;16.30;99.90
11820;DHT22;5967;48.944;9.240;2022-08-21T00:06:20;16.30;99.90
11820;DHT22;5967;48.944;9.240;2022-08-21T00:08:46;16.20;99.90
11820;DHT22;5967;48.944;9.240;2022-08-21T00:11:12;16.20;99.90
11820;DHT22;5967;48.944;9.240;2022-08-21T00:13:38;16.20;99.90
11820;DHT22;5967;48.944;9.240;2022-08-21T00:16:04;16.20;99.90
11820;DHT22;5967;48.944;9.240;2022-08-21T00:18:30;16.10;99.90
11820;DHT22;5967;48.944;9.240;2022-08-21T00:20:56;16.10;99.90
11820;DHT22;5967;48.944;9.240;2022-08-21T00:23:22;16.00;99.90
11820;DHT22;5967;48.944;9.240;2022-08-21T00:25:48;15.90;99.90
11820;DHT22;5967;48.944;9.240;2022-08-21T00:28:14;15.90;99.90
11820;DHT22;5967;48.944;9.240;2022-08-21T00:30:41;15.80;99.90
11820;DHT22;5967;48.944;9.240;2022-08-21T00:33:07;15.80;99.90
11820;DHT22;5967;48.944;9.240;2022-08-21T00:35:36;15.80;99.90
11820;DHT22;5967;48.944;9.240;2022-08-21T00:38:03;15.80;99.90
11820;DHT22;5967;48.944;9.240;2022-08-21T00:40:37;15.80;99.90
11820;DHT22;5967;48.944;9.240;2022-08-21T00:43:06;15.80;99.90
11820;DHT22;5967;48.944;9.240;2022-08-21T00:45:33;15.80;99.90
11820;DHT22;5967;48.944;9.240;2022-08-21T00:47:59;15.80;99.90
11820;DHT22;5967;48.944;9.240;2022-08-21T00:50:29;15.80;99.90
11820;DHT22;5967;48.944;9.240;2022-08-21T00:52:57;15.70;99.90
11820;DHT22;5967;48.944;9.240;2022-08-21T00:55:24;15.70;99.90
11820;DHT22;5967;48.944;9.240;2022-08-21T00:57:52;15.60;99.90
11820;DHT22;5967;48.944;9.240;2022-08-21T01:00:23;15.60;99.90
11820;DHT22;5967;48.944;9.240;2022-08-21T01:02:49;15.50;99.90
11820;DHT22;5967;48.944;9.240;2022-08-21T01:05:16;15.40;99.90
11820;DHT22;5967;48.944;9.240;2022-08-21T01:07:42;15.40;99.90
11820;DHT22;5967;48.944;9.240;2022-08-21T01:10:09;15.40;99.90
11820;DHT22;5967;48.944;9.240;2022-08-21T01:12:35;15.40;99.90
11820;DHT22;5967;48.944;9.240;2022-08-21T01:15:03;15.40;99.90
11820;DHT22;5967;48.944;9.240;2022-08-21T01:17:30;15.40;99.90
11820;DHT22;5967;48.944;9.240;2022-08-21T01:20:00;15.40;99.90
11820;DHT22;5967;48.944;9.240;2022-08-21T01:22:26;15.30;99.90
11820;DHT22;5967;48.944;9.240;2022-08-21T01:24:52;15.40;99.90
11820;DHT22;5967;48.944;9.240;2022-08-21T01:27:18;15.40;99.90
11820;DHT22;5967;48.944;9.240;2022-08-21T01:29:46;15.30;99.90
11820;DHT22;5967;48.944;9.240;2022-08-21T01:32:15;15.30;99.90
11820;DHT22;5967;48.944;9.240;2022-08-21T01:34:44;15.30;99.90
11820;DHT22;5967;48.944;9.240;2022-08-21T01:37:11;15.20;99.90
11820;DHT22;5967;48.944;9.240;2022-08-21T01:39:38;15.30;99.90
11820;DHT22;5967;48.944;9.240;2022-08-21T01:42:04;15.20;99.90
11820;DHT22;5967;48.944;9.240;2022-08-21T01:44:31;15.20;99.90
11820;DHT22;5967;48.944;9.240;2022-08-21T01:46:59;15.20;99.90
11820;DHT22;5967;48.944;9.240;2022-08-21T01:49:26;15.10;99.90
11820;DHT22;5967;48.944;9.240;2022-08-21T01:51:51;15.00;99.90
11820;DHT22;5967;48.944;9.240;2022-08-21T01:54:17;15.00;99.90
11820;DHT22;5967;48.944;9.240;2022-08-21T01:56:47;14.90;99.90
11820;DHT22;5967;48.944;9.240;2022-08-21T01:59:14;14.90;99.90
11820;DHT22;5967;48.944;9.240;2022-08-21T02:01:40;15.00;99.90
11820;DHT22;5967;48.944;9.240;2022-08-21T02:04:07;15.00;99.90
11820;DHT22;5967;48.944;9.240;2022-08-21T02:06:33;15.00;99.90
11820;DHT22;5967;48.944;9.240;2022-08-21T02:08:58;15.00;99.90
11820;DHT22;5967;48.944;9.240;2022-08-21T02:11:24;15.00;99.90
11820;DHT22;5967;48.944;9.240;2022-08-21T02:13:50;15.00;99.90
11820;DHT22;5967;48.944;9.240;2022-08-21T02:16:16;14.90;99.90
11820;DHT22;5967;48.944;9.240;2022-08-21T02:18:41;14.90;99.90
11820;DHT22;5967;48.944;9.240;2022-08-21T02:21:07;14.80;99.90
11820;DHT22;5967;48.944;9.240;2022-08-21T02:23:33;14.80;99.90
11820;DHT22;5967;48.944;9.240;2022-08-21T02:26:00;14.80;99.90
11820;DHT22;5967;48.944;9.240;2022-08-21T02:28:26;14.80;99.90
11820;DHT22;5967;48.944;9.240;2022-08-21T02:30:53;14.80;99.90
11820;DHT22;5967;48.944;9.240;2022-08-21T02:33:19;14.70;99.90
11820;DHT22;5967;48.944;9.240;2022-08-21T02:35:46;14.70;99.90
11820;DHT22;5967;48.944;9.240;2022-08-21T02:38:18;14.60;99.90
11820;DHT22;5967;48.944;9.240;2022-08-21T02:40:47;14.50;99.90
11820;DHT22;5967;48.944;9.240;2022-08-21T02:43:13;14.50;99.90
11820;DHT22;5967;48.944;9.240;2022-08-21T02:45:40;14.40;99.90
11820;DHT22;5967;48.944;9.240;2022-08-21T02:48:12;14.40;99.90
11820;DHT22;5967;48.944;9.240;2022-08-21T02:50:46;14.40;99.90
11820;DHT22;5967;48.944;9.240;2022-08-21T02:53:14;14.40;99.90
11820;DHT22;5967;48.944;9.240;2022-08-21T02:55:46;14.40;99.90
11820;DHT22;5967;48.944;9.240;2022-08-21T02:58:14;14.50;99.90
11820;DHT22;5967;48.944;9.240;2022-08-21T03:00:41;14.50;99.90
11820;DHT22;5967;48.944;9.240;2022-08-21T03:03:06;14.50;99.90
11820;DHT22;5967;48.944;9.240;2022-08-21T03:05:34;14.60;99.90
11820;DHT22;5967;48.944;9.240;2022-08-21T03:08:03;14.60;99.90
11820;DHT22;5967;48.944;9.240;2022-08-21T03:10:29;14.60;99.90
11820;DHT22;5967;48.944;9.240;2022-08-21T03:12:56;14.60;99.90
11820;DHT22;5967;48.944;9.240;2022-08-21T03:15:23;14.60;99.90
11820;DHT22;5967;48.944;9.240;2022-08-21T03:17:50;14.60;99.90
11820;DHT22;5967;48.944;9.240;2022-08-21T03:20:19;14.60;99.90
11820;DHT22;5967;48.944;9.240;2022-08-21T03:22:47;14.60;99.90
11820;DHT22;5967;48.944;9.240;2022-08-21T03:25:13;14.50;99.90
11820;DHT22;5967;48.944;9.240;2022-08-21T03:27:39;14.50;99.90
11820;DHT22;5967;48.944;9.240;2022-08-21T03:30:06;14.60;99.90
11820;DHT22;5967;48.944;9.240;2022-08-21T03:32:32;14.50;99.90
11820;DHT22;5967;48.944;9.240;2022-08-21T03:34:58;14.50;99.90
11820;DHT22;5967;48.944;9.240;2022-08-21T03:37:26;14.50;99.90
11820;DHT22;5967;48.944;9.240;2022-08-21T03:39:52;14.50;99.90
11820;DHT22;5967;48.944;9.240;2022-08-21T03:42:18;14.50;99.90
11820;DHT22;5967;48.944;9.240;2022-08-21T03:44:43;14.50;99.90
11820;DHT22;5967;48.944;9.240;2022-08-21T03:47:09;14.50;99.90
11820;DHT22;5967;48.944;9.240;2022-08-21T03:49:36;14.50;99.90
11820;DHT22;5967;48.944;9.240;2022-08-21T03:52:02;14.40;99.90
11820;DHT22;5967;48.944;9.240;2022-08-21T03:54:29;14.40;99.90
11820;DHT22;5967;48.944;9.240;2022-08-21T03:56:55;14.40;99.90
11820;DHT22;5967;48.944;9.240;2022-08-21T03:59:21;14.40;99.90
11820;DHT22;5967;48.944;9.240;2022-08-21T04:02:00;14.40;99.90
11820;DHT22;5967;48.944;9.240;2022-08-21T04:04:27;14.40;99.90
11820;DHT22;5967;48.944;9.240;2022-08-21T04:06:54;14.30;99.90
11820;DHT22;5967;48.944;9.240;2022-08-21T04:09:20;14.30;99.90
11820;DHT22;5967;48.944;9.240;2022-08-21T04:11:46;14.30;99.90
11820;DHT22;5967;48.944;9.240;2022-08-21T04:14:13;14.30;99.90
11820;DHT22;5967;48.944;9.240;2022-08-21T04:16:40;14.20;99.90
11820;DHT22;5967;48.944;9.240;2022-08-21T04:19:07;14.20;99.90
11820;DHT22;5967;48.944;9.240;2022-08-21T04:21:33;14.20;99.90
11820;DHT22;5967;48.944;9.240;2022-08-21T04:23:59;14.20;99.90
11820;DHT22;5967;48.944;9.240;2022-08-21T04:26:25;14.10;99.90
11820;DHT22;5967;48.944;9.240;2022-08-21T04:28:51;14.10;99.90
11820;DHT22;5967;48.944;9.240;2022-08-21T04:31:17;14.10;99.90
11820;DHT22;5967;48.944;9.240;2022-08-21T04:33:43;14.10;99.90
11820;DHT22;5967;48.944;9.240;2022-08-21T04:36:10;14.10;99.90
11820;DHT22;5967;48.944;9.240;2022-08-21T04:38:36;14.00;99.90
11820;DHT22;5967;48.944;9.240;2022-08-21T04:41:02;14.00;99.90
11820;DHT22;5967;48.944;9.240;2022-08-21T04:43:27;14.10;99.90
11820;DHT22;5967;48.944;9.240;2022-08-21T04:45:53;14.10;99.90
11820;DHT22;5967;48.944;9.240;2022-08-21T04:48:21;14.10;99.90
11820;DHT22;5967;48.944;9.240;2022-08-21T04:53:44;14.20;99.90
11820;DHT22;5967;48.944;9.240;2022-08-21T04:56:26;14.20;99.90
11820;DHT22;5967;48.944;9.240;2022-08-21T04:58:55;14.20;99.90
11820;DHT22;5967;48.944;9.240;2022-08-21T05:01:24;14.20;99.90
11820;DHT22;5967;48.944;9.240;2022-08-21T05:03:54;14.20;99.90
11820;DHT22;5967;48.944;9.240;2022-08-21T05:06:20;14.20;99.90
11820;DHT22;5967;48.944;9.240;2022-08-21T05:08:49;14.20;99.90
11820;DHT22;5967;48.944;9.240;2022-08-21T05:11:16;14.30;99.90
11820;DHT22;5967;48.944;9.240;2022-08-21T05:13:41;14.30;99.90
11820;DHT22;5967;48.944;9.240;2022-08-21T05:16:07;14.40;99.90
11820;DHT22;5967;48.944;9.240;2022-08-21T05:18:33;14.50;99.90
11820;DHT22;5967;48.944;9.240;2022-08-21T05:20:59;14.70;99.90
11820;DHT22;5967;48.944;9.240;2022-08-21T05:23:24;14.80;99.90
11820;DHT22;5967;48.944;9.240;2022-08-21T05:25:52;15.00;99.90
11820;DHT22;5967;48.944;9.240;2022-08-21T05:28:18;15.10;99.90
11820;DHT22;5967;48.944;9.240;2022-08-21T05:30:44;15.20;99.90
11820;DHT22;5967;48.944;9.240;2022-08-21T05:33:10;15.30;99.90
11820;DHT22;5967;48.944;9.240;2022-08-21T05:35:37;15.30;99.90
11820;DHT22;5967;48.944;9.240;2022-08-21T05:38:03;15.40;99.90
11820;DHT22;5967;48.944;9.240;2022-08-21T05:40:29;15.60;99.90
11820;DHT22;5967;48.944;9.240;2022-08-21T05:42:55;15.70;99.90
11820;DHT22;5967;48.944;9.240;2022-08-21T05:45:27;15.80;99.90
11820;DHT22;5967;48.944;9.240;2022-08-21T05:47:53;15.90;99.90
11820;DHT22;5967;48.944;9.240;2022-08-21T05:50:19;15.90;99.90
11820;DHT22;5967;48.944;9.240;2022-08-21T05:52:45;15.90;99.90
11820;DHT22;5967;48.944;9.240;2022-08-21T05:55:11;16.00;99.90
11820;DHT22;5967;48.944;9.240;2022-08-21T05:57:37;16.00;99.90
11820;DHT22;5967;48.944;9.240;2022-08-21T06:00:07;16.00;99.90
11820;DHT22;5967;48.944;9.240;2022-08-21T06:02:34;16.00;99.90
11820;DHT22;5967;48.944;9.240;2022-08-21T06:04:59;16.10;99.90
11820;DHT22;5967;48.944;9.240;2022-08-21T06:07:25;16.20;99.90
11820;DHT22;5967;48.944;9.240;2022-08-21T06:09:51;16.20;99.90
11820;DHT22;5967;48.944;9.240;2022-08-21T06:12:17;16.30;99.90
11820;DHT22;5967;48.944;9.240;2022-08-21T06:14:42;16.40;99.90
11820;DHT22;5967;48.944;9.240;2022-08-21T06:17:10;16.40;99.90
11820;DHT22;5967;48.944;9.240;2022-08-21T06:19:37;16.50;99.90
11820;DHT22;5967;48.944;9.240;2022-08-21T06:22:03;16.90;99.90
11820;DHT22;5967;48.944;9.240;2022-08-21T06:24:29;17.10;99.90
11820;DHT22;5967;48.944;9.240;2022-08-21T06:26:56;17.30;99.90
11820;DHT22;5967;48.944;9.240;2022-08-21T06:29:22;17.50;99.90
11820;DHT22;5967;48.944;9.240;2022-08-21T06:31:49;17.50;99.90
11820;DHT22;5967;48.944;9.240;2022-08-21T06:34:16;17.50;99.90
11820;DHT22;5967;48.944;9.240;2022-08-21T06:36:42;17.40;99.90
11820;DHT22;5967;48.944;9.240;2022-08-21T06:39:07;17.40;99.90
11820;DHT22;5967;48.944;9.240;2022-08-21T06:41:33;17.30;99.90
11820;DHT22;5967;48.944;9.240;2022-08-21T06:43:59;17.20;99.90
11820;DHT22;5967;48.944;9.240;2022-08-21T06:46:26;17.20;99.90
11820;DHT22;5967;48.944;9.240;2022-08-21T06:48:52;17.20;99.90
11820;DHT22;5967;48.944;9.240;2022-08-21T06:51:18;17.20;99.90
11820;DHT22;5967;48.944;9.240;2022-08-21T06:53:44;17.20;99.90
11820;DHT22;5967;48.944;9.240;2022-08-21T06:56:10;17.20;99.90
11820;DHT22;5967;48.944;9.240;2022-08-21T06:58:36;17.20;99.90
11820;DHT22;5967;48.944;9.240;2022-08-21T07:01:02;17.30;99.90
11820;DHT22;5967;48.944;9.240;2022-08-21T07:03:34;17.30;99.90
11820;DHT22;5967;48.944;9.240;2022-08-21T07:06:01;17.40;99.90
11820;DHT22;5967;48.944;9.240;2022-08-21T07:08:28;17.60;99.90
11820;DHT22;5967;48.944;9.240;2022-08-21T07:10:56;17.70;99.90
11820;DHT22;5967;48.944;9.240;2022-08-21T07:13:22;17.70;99.90
11820;DHT22;5967;48.944;9.240;2022-08-21T07:15:48;17.80;99.90
11820;DHT22;5967;48.944;9.240;2022-08-21T07:18:14;17.90;99.90
11820;DHT22;5967;48.944;9.240;2022-08-21T07:20:40;18.00;99.90
11820;DHT22;5967;48.944;9.240;2022-08-21T07:23:10;18.00;99.90
11820;DHT22;5967;48.944;9.240;2022-08-21T07:25:37;18.10;99.90
11820;DHT22;5967;48.944;9.240;2022-08-21T07:28:03;18.20;99.90
11820;DHT22;5967;48.944;9.240;2022-08-21T07:30:29;18.30;99.90
11820;DHT22;5967;48.944;9.240;2022-08-21T07:32:56;18.30;99.90
11820;DHT22;5967;48.944;9.240;2022-08-21T07:35:22;18.40;99.90
11820;DHT22;5967;48.944;9.240;2022-08-21T07:37:48;18.50;99.90
11820;DHT22;5967;48.944;9.240;2022-08-21T07:40:15;18.70;99.90
11820;DHT22;5967;48.944;9.240;2022-08-21T07:42:44;18.70;99.90
11820;DHT22;5967;48.944;9.240;2022-08-21T07:45:10;18.80;99.90
11820;DHT22;5967;48.944;9.240;2022-08-21T07:47:36;18.80;99.90
11820;DHT22;5967;48.944;9.240;2022-08-21T07:50:03;18.90;99.90
11820;DHT22;5967;48.944;9.240;2022-08-21T07:52:28;18.80;99.90
11820;DHT22;5967;48.944;9.240;2022-08-21T07:54:54;18.90;99.90
11820;DHT22;5967;48.944;9.240;2022-08-21T07:57:20;18.90;99.90
11820;DHT22;5967;48.944;9.240;2022-08-21T07:59:45;19.00;99.90
11820;DHT22;5967;48.944;9.240;2022-08-21T08:02:25;19.10;99.90
11820;DHT22;5967;48.944;9.240;2022-08-21T08:04:51;19.20;99.90
11820;DHT22;5967;48.944;9.240;2022-08-21T08:07:17;19.20;99.90
11820;DHT22;5967;48.944;9.240;2022-08-21T08:09:43;19.30;99.90
11820;DHT22;5967;48.944;9.240;2022-08-21T08:12:09;19.40;99.90
11820;DHT22;5967;48.944;9.240;2022-08-21T08:14:35;19.50;99.90
11820;DHT22;5967;48.944;9.240;2022-08-21T08:17:00;19.60;99.90
11820;DHT22;5967;48.944;9.240;2022-08-21T08:19:27;19.70;99.90
11820;DHT22;5967;48.944;9.240;2022-08-21T08:21:53;19.70;99.90
11820;DHT22;5967;48.944;9.240;2022-08-21T08:24:19;19.80;99.90
11820;DHT22;5967;48.944;9.240;2022-08-21T08:26:45;19.90;99.90
11820;DHT22;5967;48.944;9.240;2022-08-21T08:29:11;19.90;99.90
11820;DHT22;5967;48.944;9.240;2022-08-21T08:31:36;19.90;99.90
11820;DHT22;5967;48.944;9.240;2022-08-21T08:34:02;20.00;99.90
11820;DHT22;5967;48.944;9.240;2022-08-21T08:36:35;20.00;99.90
11820;DHT22;5967;48.944;9.240;2022-08-21T08:39:02;20.10;99.90
11820;DHT22;5967;48.944;9.240;2022-08-21T08:41:29;20.10;99.90
11820;DHT22;5967;48.944;9.240;2022-08-21T08:44:03;20.20;99.90
11820;DHT22;5967;48.944;9.240;2022-08-21T08:46:44;20.30;99.90
11820;DHT22;5967;48.944;9.240;2022-08-21T08:49:20;20.40;99.90
11820;DHT22;5967;48.944;9.240;2022-08-21T08:52:02;20.50;99.90
11820;DHT22;5967;48.944;9.240;2022-08-21T08:54:42;20.70;99.90
11820;DHT22;5967;48.944;9.240;2022-08-21T08:57:16;20.80;99.90
11820;DHT22;5967;48.944;9.240;2022-08-21T08:59:48;20.90;99.90
11820;DHT22;5967;48.944;9.240;2022-08-21T09:02:16;21.00;99.90
11820;DHT22;5967;48.944;9.240;2022-08-21T09:04:44;21.10;99.90
11820;DHT22;5967;48.944;9.240;2022-08-21T09:07:40;21.20;99.90
11820;DHT22;5967;48.944;9.240;2022-08-21T09:10:35;21.30;99.90
11820;DHT22;5967;48.944;9.240;2022-08-21T09:13:17;21.50;99.90
11820;DHT22;5967;48.944;9.240;2022-08-21T09:24:00;22.10;99.90
11820;DHT22;5967;48.944;9.240;2022-08-21T09:26:55;22.20;99.90
11820;DHT22;5967;48.944;9.240;2022-08-21T09:29:17;22.30;99.90
11820;DHT22;5967;48.944;9.240;2022-08-21T09:31:45;22.30;99.90
11820;DHT22;5967;48.944;9.240;2022-08-21T09:34:11;22.30;99.90
11820;DHT22;5967;48.944;9.240;2022-08-21T09:36:44;22.30;99.90
11820;DHT22;5967;48.944;9.240;2022-08-21T09:39:12;22.30;99.90
11820;DHT22;5967;48.944;9.240;2022-08-21T09:41:39;22.40;99.90
11820;DHT22;5967;48.944;9.240;2022-08-21T09:44:08;22.60;99.90
11820;DHT22;5967;48.944;9.240;2022-08-21T09:46:34;22.80;99.90
11820;DHT22;5967;48.944;9.240;2022-08-21T09:49:03;23.00;99.90
11820;DHT22;5967;48.944;9.240;2022-08-21T09:51:31;23.20;99.90
11820;DHT22;5967;48.944;9.240;2022-08-21T09:54:10;23.30;99.90
11820;DHT22;5967;48.944;9.240;2022-08-21T09:56:50;23.50;99.90
11820;DHT22;5967;48.944;9.240;2022-08-21T09:59:35;23.50;99.90
11820;DHT22;5967;48.944;9.240;2022-08-21T10:04:50;23.50;99.90
11820;DHT22;5967;48.944;9.240;2022-08-21T10:07:21;23.40;99.90
11820;DHT22;5967;48.944;9.240;2022-08-21T10:10:08;23.40;99.90
11820;DHT22;5967;48.944;9.240;2022-08-21T10:15:13;23.60;99.90
11820;DHT22;5967;48.944;9.240;2022-08-21T10:18:05;23.60;99.90
11820;DHT22;5967;48.944;9.240;2022-08-21T10:20:46;23.80;99.90
11820;DHT22;5967;48.944;9.240;2022-08-21T10:29:18;24.00;99.90
11820;DHT22;5967;48.944;9.240;2022-08-21T10:32:02;24.10;99.90
11820;DHT22;5967;48.944;9.240;2022-08-21T10:34:42;24.30;99.90
11820;DHT22;5967;48.944;9.240;2022-08-21T10:40:26;24.80;99.90
11820;DHT22;5967;48.944;9.240;2022-08-21T10:48:59;25.10;99.90
11820;DHT22;5967;48.944;9.240;2022-08-21T10:54:16;25.20;99.90
11820;DHT22;5967;48.944;9.240;2022-08-21T10:56:47;25.20;99.90
11820;DHT22;5967;48.944;9.240;2022-08-21T11:02:25;25.30;99.90
11820;DHT22;5967;48.944;9.240;2022-08-21T11:07:32;25.40;99.90
11820;DHT22;5967;48.944;9.240;2022-08-21T11:10:13;25.40;99.90
11820;DHT22;5967;48.944;9.240;2022-08-21T11:12:47;25.30;99.90
11820;DHT22;5967;48.944;9.240;2022-08-21T11:17:57;25.40;99.90
11820;DHT22;5967;48.944;9.240;2022-08-21T11:20:38;25.50;99.90
11820;DHT22;5967;48.944;9.240;2022-08-21T11:23:25;25.50;99.90
11820;DHT22;5967;48.944;9.240;2022-08-21T11:25:58;25.40;99.90
11820;DHT22;5967;48.944;9.240;2022-08-21T11:34:03;25.40;99.90
11820;DHT22;5967;48.944;9.240;2022-08-21T11:39:26;25.30;99.90
11820;DHT22;5967;48.944;9.240;2022-08-21T11:47:46;25.50;99.90
11820;DHT22;5967;48.944;9.240;2022-08-21T11:50:17;25.60;99.90
11820;DHT22;5967;48.944;9.240;2022-08-21T11:52:49;25.70;99.90
11820;DHT22;5967;48.944;9.240;2022-08-21T11:55:34;25.70;99.90
11820;DHT22;5967;48.944;9.240;2022-08-21T12:03:16;25.80;99.90
11820;DHT22;5967;48.944;9.240;2022-08-21T12:05:45;25.80;99.90
11820;DHT22;5967;48.944;9.240;2022-08-21T12:11:07;25.80;99.90
11820;DHT22;5967;48.944;9.240;2022-08-21T12:13:39;25.90;99.90
11820;DHT22;5967;48.944;9.240;2022-08-21T12:16:09;25.80;99.90
11820;DHT22;5967;48.944;9.240;2022-08-21T12:18:34;25.80;99.90
11820;DHT22;5967;48.944;9.240;2022-08-21T12:21:26;25.80;99.90
11820;DHT22;5967;48.944;9.240;2022-08-21T12:26:51;25.80;99.90
11820;DHT22;5967;48.944;9.240;2022-08-21T12:29:32;25.90;99.90
11820;DHT22;5967;48.944;9.240;2022-08-21T12:34:54;25.90;99.90
11820;DHT22;5967;48.944;9.240;2022-08-21T12:37:28;25.90;99.90
11820;DHT22;5967;48.944;9.240;2022-08-21T12:39:58;26.00;99.90
11820;DHT22;5967;48.944;9.240;2022-08-21T12:42:37;26.00;99.90
11820;DHT22;5967;48.944;9.240;2022-08-21T12:45:51;26.00;99.90
11820;DHT22;5967;48.944;9.240;2022-08-21T12:48:12;26.00;99.90
11820;DHT22;5967;48.944;9.240;2022-08-21T12:50:46;26.10;99.90
11820;DHT22;5967;48.944;9.240;2022-08-21T12:53:29;26.10;99.90
11820;DHT22;5967;48.944;9.240;2022-08-21T12:55:57;26.00;99.90
11820;DHT22;5967;48.944;9.240;2022-08-21T12:58:27;26.00;99.90
11820;DHT22;5967;48.944;9.240;2022-08-21T13:01:05;26.00;99.90
11820;DHT22;5967;48.944;9.240;2022-08-21T13:03:35;25.90;99.90
11820;DHT22;5967;48.944;9.240;2022-08-21T13:06:03;26.00;99.90
11820;DHT22;5967;48.944;9.240;2022-08-21T13:08:30;26.00;99.90
11820;DHT22;5967;48.944;9.240;2022-08-21T13:11:04;26.10;99.90
11820;DHT22;5967;48.944;9.240;2022-08-21T13:13:31;26.20;99.90
11820;DHT22;5967;48.944;9.240;2022-08-21T13:16:05;26.20;99.90
11820;DHT22;5967;48.944;9.240;2022-08-21T13:18:34;26.20;99.90
11820;DHT22;5967;48.944;9.240;2022-08-21T13:21:12;26.20;99.90
11820;DHT22;5967;48.944;9.240;2022-08-21T13:23:38;26.20;99.90
11820;DHT22;5967;48.944;9.240;2022-08-21T13:26:21;26.20;99.90
11820;DHT22;5967;48.944;9.240;2022-08-21T13:28:48;26.40;99.90
11820;DHT22;5967;48.944;9.240;2022-08-21T13:31:24;26.40;99.90
11820;DHT22;5967;48.944;9.240;2022-08-21T13:33:53;26.50;99.90
11820;DHT22;5967;48.944;9.240;2022-08-21T13:36:32;26.50;99.90
11820;DHT22;5967;48.944;9.240;2022-08-21T13:38:59;26.50;99.90
11820;DHT22;5967;48.944;9.240;2022-08-21T13:41:28;26.50;99.90
11820;DHT22;5967;48.944;9.240;2022-08-21T13:44:19;26.50;99.90
11820;DHT22;5967;48.944;9.240;2022-08-21T13:46:45;26.60;99.90
11820;DHT22;5967;48.944;9.240;2022-08-21T13:49:14;26.60;99.90
11820;DHT22;5967;48.944;9.240;2022-08-21T13:51:40;26.70;99.90
11820;DHT22;5967;48.944;9.240;2022-08-21T13:54:26;26.70;99.90
11820;DHT22;5967;48.944;9.240;2022-08-21T13:56:53;26.70;99.40
11820;DHT22;5967;48.944;9.240;2022-08-21T13:59:34;26.70;99.50
11820;DHT22;5967;48.944;9.240;2022-08-21T14:02:14;26.70;99.30
11820;DHT22;5967;48.944;9.240;2022-08-21T14:05:01;26.70;97.50
11820;DHT22;5967;48.944;9.240;2022-08-21T14:07:36;26.70;97.50
11820;DHT22;5967;48.944;9.240;2022-08-21T14:10:06;26.70;97.60
11820;DHT22;5967;48.944;9.240;2022-08-21T14:13:04;26.70;96.70
11820;DHT22;5967;48.944;9.240;2022-08-21T14:15:32;26.80;96.70
11820;DHT22;5967;48.944;9.240;2022-08-21T14:18:16;26.70;96.90
11820;DHT22;5967;48.944;9.240;2022-08-21T14:20:43;26.80;97.40
11820;DHT22;5967;48.944;9.240;2022-08-21T14:23:09;26.80;97.30
11820;DHT22;5967;48.944;9.240;2022-08-21T14:25:43;26.90;97.70
11820;DHT22;5967;48.944;9.240;2022-08-21T14:30:43;27.00;97.10
11820;DHT22;5967;48.944;9.240;2022-08-21T14:33:11;27.10;96.40
11820;DHT22;5967;48.944;9.240;2022-08-21T14:35:37;27.10;96.30
11820;DHT22;5967;48.944;9.240;2022-08-21T14:38:15;27.10;96.70
11820;DHT22;5967;48.944;9.240;2022-08-21T14:40:42;27.00;96.80
11820;DHT22;5967;48.944;9.240;2022-08-21T14:43:09;27.00;96.20
11820;DHT22;5967;48.944;9.240;2022-08-21T14:45:35;26.90;96.70
11820;DHT22;5967;48.944;9.240;2022-08-21T14:48:02;26.90;97.20
11820;DHT22;5967;48.944;9.240;2022-08-21T14:50:28;26.90;97.00
11820;DHT22;5967;48.944;9.240;2022-08-21T14:52:54;26.90;98.20
11820;DHT22;5967;48.944;9.240;2022-08-21T14:55:20;27.00;98.50
11820;DHT22;5967;48.944;9.240;2022-08-21T14:57:48;26.90;97.90
11820;DHT22;5967;48.944;9.240;2022-08-21T15:00:17;27.00;97.80
11820;DHT22;5967;48.944;9.240;2022-08-21T15:02:44;27.00;98.10
11820;DHT22;5967;48.944;9.240;2022-08-21T15:05:10;27.00;98.00
11820;DHT22;5967;48.944;9.240;2022-08-21T15:07:36;27.10;97.70
11820;DHT22;5967;48.944;9.240;2022-08-21T15:10:04;27.10;97.20
11820;DHT22;5967;48.944;9.240;2022-08-21T15:12:30;27.10;97.20
11820;DHT22;5967;48.944;9.240;2022-08-21T15:14:56;27.00;97.50
11820;DHT22;5967;48.944;9.240;2022-08-21T15:17:22;27.00;97.30
11820;DHT22;5967;48.944;9.240;2022-08-21T15:19:47;27.00;97.80
11820;DHT22;5967;48.944;9.240;2022-08-21T15:22:13;27.00;97.70
11820;DHT22;5967;48.944;9.240;2022-08-21T15:24:39;27.00;97.60
11820;DHT22;5967;48.944;9.240;2022-08-21T15:27:08;27.00;97.80
11820;DHT22;5967;48.944;9.240;2022-08-21T15:29:34;27.10;97.50
11820;DHT22;5967;48.944;9.240;2022-08-21T15:32:13;27.10;97.30
11820;DHT22;5967;48.944;9.240;2022-08-21T15:34:39;27.10;97.10
11820;DHT22;5967;48.944;9.240;2022-08-21T15:37:05;27.10;97.30
11820;DHT22;5967;48.944;9.240;2022-08-21T15:39:34;27.00;97.20
11820;DHT22;5967;48.944;9.240;2022-08-21T15:41:59;27.00;97.10
11820;DHT22;5967;48.944;9.240;2022-08-21T15:44:29;27.00;96.90
11820;DHT22;5967;48.944;9.240;2022-08-21T15:46:56;27.00;96.70
11820;DHT22;5967;48.944;9.240;2022-08-21T15:49:22;27.00;97.10
11820;DHT22;5967;48.944;9.240;2022-08-21T15:51:48;27.00;97.10
11820;DHT22;5967;48.944;9.240;2022-08-21T15:54:13;26.90;96.80
11820;DHT22;5967;48.944;9.240;2022-08-21T15:56:40;26.90;97.30
11820;DHT22;5967;48.944;9.240;2022-08-21T15:59:17;26.80;97.30
11820;DHT22;5967;48.944;9.240;2022-08-21T16:01:44;26.70;96.90
11820;DHT22;5967;48.944;9.240;2022-08-21T16:04:18;26.70;97.10
11820;DHT22;5967;48.944;9.240;2022-08-21T16:06:44;26.60;96.90
11820;DHT22;5967;48.944;9.240;2022-08-21T16:09:10;26.60;97.10
11820;DHT22;5967;48.944;9.240;2022-08-21T16:11:36;26.50;97.00
11820;DHT22;5967;48.944;9.240;2022-08-21T16:14:01;26.50;96.90
11820;DHT22;5967;48.944;9.240;2022-08-21T16:16:28;26.50;96.90
11820;DHT22;5967;48.944;9.240;2022-08-21T16:18:55;26.60;97.10
11820;DHT22;5967;48.944;9.240;2022-08-21T16:21:21;26.50;96.90
11820;DHT22;5967;48.944;9.240;2022-08-21T16:23:46;26.60;97.30
11820;DHT22;5967;48.944;9.240;2022-08-21T16:26:13;26.50;96.90
11820;DHT22;5967;48.944;9.240;2022-08-21T16:28:42;26.50;97.00
11820;DHT22;5967;48.944;9.240;2022-08-21T16:31:10;26.50;97.40
11820;DHT22;5967;48.944;9.240;2022-08-21T16:33:42;26.40;97.00
11820;DHT22;5967;48.944;9.240;2022-08-21T16:36:09;26.40;97.10
11820;DHT22;5967;48.944;9.240;2022-08-21T16:38:35;26.40;97.30
11820;DHT22;5967;48.944;9.240;2022-08-21T16:41:03;26.30;97.20
11820;DHT22;5967;48.944;9.240;2022-08-21T16:43:30;26.30;96.90
11820;DHT22;5967;48.944;9.240;2022-08-21T16:45:56;26.30;96.90
11820;DHT22;5967;48.944;9.240;2022-08-21T16:48:23;26.30;96.20
11820;DHT22;5967;48.944;9.240;2022-08-21T16:50:49;26.30;96.40
11820;DHT22;5967;48.944;9.240;2022-08-21T16:53:15;26.20;96.20
11820;DHT22;5967;48.944;9.240;2022-08-21T16:55:42;26.20;96.00
11820;DHT22;5967;48.944;9.240;2022-08-21T16:58:12;26.20;95.80
11820;DHT22;5967;48.944;9.240;2022-08-21T17:00:38;26.10;95.80
11820;DHT22;5967;48.944;9.240;2022-08-21T17:03:05;26.10;95.90
11820;DHT22;5967;48.944;9.240;2022-08-21T17:05:31;26.10;95.90
11820;DHT22;5967;48.944;9.240;2022-08-21T17:07:57;26.10;96.10
11820;DHT22;5967;48.944;9.240;2022-08-21T17:10:22;26.10;96.10